Latest Weather Observations for Minnipa RS

IDS60801

Issued at 7:32 am CDT Sunday 1 February 2015 (issued every 30 minutes, with the page automatically refreshed every 10 minutes)

About weather observations | Map of weather stations | Latest weather observations for SA | Other Formats
Station Details ID: 018195 Name: MINNIPA PIRSA Lat: -32.84 Lon: 135.15 Height: 165.0 m
Data from the previous 72 hours. | See also: Recent months at Minnipa RS
Date/Time
CDT
Temp
°C
App
Temp
°C
Dew
Point
Rel
Hum
%
Delta-T
°C
Wind Press
QNH
hPa
Press
MSL
hPa
Rain
since 9 am
mm
Dir
 
Spd
km/h
Gust
km/h
Spd
kts
Gust
kts
01/07:30am 15.8 11.0 9.0 64 3.5 SE 24 32 13 17 1018.2 - 0.0
01/07:00am 15.4 9.5 9.1 66 3.3 SE 30 43 16 23 1017.7 - 0.0
01/06:30am 15.4 10.3 9.3 67 3.2 SE 26 35 14 19 1017.5 - 0.0
01/06:00am 15.4 9.5 9.1 66 3.3 SE 30 43 16 23 1017.1 1016.4 0.0
01/05:30am 14.8 10.5 9.2 69 2.9 SSE 22 28 12 15 1017.1 - 0.0
01/05:00am 14.3 9.9 9.1 71 2.7 SE 22 30 12 16 1016.8 - 0.0
01/04:30am 14.7 9.2 9.1 69 2.9 SE 28 41 15 22 1016.7 - 0.0
01/04:00am 14.7 10.4 9.5 71 2.7 SSE 22 30 12 16 1016.7 - 0.0
01/03:30am 15.2 11.1 10.0 71 2.7 SSE 22 30 12 16 1016.7 - 0.0
01/03:00am 14.9 11.2 10.3 74 2.4 SSE 20 28 11 15 1016.6 1015.9 0.0
01/02:30am 15.1 11.7 10.7 75 2.3 SE 19 24 10 13 1016.8 - 0.0
01/02:00am 15.4 11.9 11.0 75 2.4 SE 20 24 11 13 1017.1 - 0.0
01/01:30am 15.2 11.9 10.8 75 2.4 SE 19 24 10 13 1017.3 - 0.0
01/01:00am 15.4 11.4 10.4 72 2.7 SE 22 28 12 15 1017.5 - 0.0
01/12:30am 15.8 11.6 9.7 67 3.2 SE 22 30 12 16 1017.5 - 0.0
01/12:00am 16.4 11.7 9.3 63 3.7 SE 24 35 13 19 1017.5 1016.7 0.0
 
Date/Time
CDT
Temp
°C
App
Temp
°C
Dew
Point
Rel
Hum
%
Delta-T
°C
Wind Press
QNH
hPa
Press
MSL
hPa
Rain
since 9 am
mm
Dir
 
Spd
km/h
Gust
km/h
Spd
kts
Gust
kts
31/11:30pm 16.7 11.9 8.7 59 4.1 SE 24 32 13 17 1017.7 - 0.0
31/11:00pm 17.2 11.5 8.4 56 4.5 SE 28 37 15 20 1017.7 - 0.0
31/10:30pm 17.7 12.6 7.7 52 5.1 SE 24 33 13 18 1017.5 - 0.0
31/10:00pm 18.4 12.1 7.5 49 5.6 SE 30 41 16 22 1017.0 - 0.0
31/09:30pm 19.1 12.5 7.8 48 5.8 SE 32 44 17 24 1016.6 - 0.0
31/09:00pm 20.1 14.0 8.1 46 6.3 ESE 30 41 16 22 1016.1 1015.4 0.0
31/08:30pm 21.4 14.8 7.6 41 7.2 SE 32 43 17 23 1015.6 - 0.0
31/08:00pm 23.2 16.1 6.5 34 8.6 SE 33 46 18 25 1015.0 - 0.0
31/07:30pm 24.9 17.7 5.7 29 9.9 SE 33 43 18 23 1014.5 - 0.0
31/07:00pm 26.8 20.7 4.6 24 11.3 SE 26 39 14 21 1014.1 - 0.0
31/06:30pm 27.6 21.0 4.0 22 12.0 SE 28 43 15 23 1013.7 - 0.0
31/06:00pm 28.2 22.0 4.5 22 12.2 SSE 26 37 14 20 1013.5 1012.7 0.0
31/05:30pm 29.2 23.6 5.3 22 12.5 SE 24 35 13 19 1013.6 - 0.0
31/05:00pm 29.5 24.0 4.2 20 13.0 SSE 22 37 12 20 1013.8 - 0.0
31/04:30pm 28.9 23.7 3.7 20 12.8 S 20 32 11 17 1014.0 - 0.0
31/04:00pm 29.5 24.6 4.9 21 12.8 SE 20 33 11 18 1014.1 - 0.0
31/03:30pm 28.7 22.9 4.2 21 12.6 SE 24 33 13 18 1014.2 - 0.0
31/03:00pm 28.6 23.5 4.2 21 12.5 S 20 33 11 18 1014.4 1013.7 0.0
31/02:30pm 27.7 22.7 4.7 23 11.8 S 20 32 11 17 1014.6 - 0.0
31/02:00pm 28.5 23.8 6.0 24 11.9 SE 20 32 11 17 1014.8 - 0.0
31/01:30pm 26.6 20.9 5.0 25 11.1 S 24 43 13 23 1015.1 - 0.0
31/01:00pm 26.1 21.5 5.7 27 10.6 SSE 19 32 10 17 1015.5 - 0.0
31/12:30pm 24.7 19.4 5.0 28 10.0 SSE 22 37 12 20 1015.7 - 0.0
31/12:00pm 24.3 19.1 7.4 34 8.9 SE 24 33 13 18 1015.9 1015.2 0.0
31/11:30am 23.4 18.6 8.7 39 7.9 SSE 24 32 13 17 1016.3 - 0.0
31/11:00am 21.6 17.2 8.8 44 6.8 SE 22 32 12 17 1016.5 - 0.0
31/10:30am 20.2 15.1 9.2 49 5.9 SE 26 35 14 19 1016.5 - 0.0
31/10:00am 19.8 15.7 10.2 54 5.2 SE 22 32 12 17 1016.4 - 0.0
31/09:30am 18.0 13.1 10.1 60 4.2 ESE 26 33 14 18 1016.3 - 0.0
31/09:00am 16.7 12.7 10.3 66 3.4 SE 22 30 12 16 1016.4 1015.7 0.0
31/08:30am 15.5 11.9 10.5 72 2.7 SE 20 30 11 16 1016.4 - 0.0
31/08:00am 13.4 9.9 10.2 81 1.7 SE 19 22 10 12 1016.3 - 0.0
31/07:30am 12.9 9.8 10.3 84 1.4 SE 17 22 9 12 1015.9 - 0.0
31/07:00am 12.2 8.7 10.3 88 1.0 SE 19 24 10 13 1015.5 - 0.0
31/06:30am 12.2 8.5 10.3 88 1.0 SSE 20 24 11 13 1015.0 - 0.0
31/06:00am 12.4 8.9 10.3 87 1.1 SE 19 20 10 11 1014.9 1014.2 0.0
31/05:30am 12.5 9.4 10.2 86 1.2 SE 17 20 9 11 1014.6 - 0.0
31/05:00am 12.7 10.0 10.2 85 1.3 SE 15 20 8 11 1014.8 - 0.0
31/04:30am 13.5 10.1 10.7 83 1.5 SE 19 24 10 13 1014.4 - 0.0
31/04:00am 13.9 10.6 10.9 82 1.6 SE 19 26 10 14 1014.4 - 0.0
31/03:30am 14.3 10.8 10.9 80 1.8 SE 20 28 11 15 1014.2 - 0.0
31/03:00am 14.6 11.1 10.8 78 2.0 ESE 20 28 11 15 1014.1 1013.4 0.0
31/02:30am 15.1 10.8 10.9 76 2.2 ESE 24 35 13 19 1014.1 - 0.0
31/02:00am 15.3 11.3 10.5 73 2.6 ESE 22 30 12 16 1014.4 - 0.0
31/01:30am 15.9 11.1 10.2 69 3.0 ESE 26 33 14 18 1014.5 - 0.0
31/01:00am 16.4 11.8 9.8 65 3.5 ESE 24 33 13 18 1014.5 - 0.0
31/12:30am 17.1 11.8 10.0 63 3.8 ESE 28 37 15 20 1014.6 - 0.0
31/12:00am 17.6 11.6 10.0 61 4.1 ESE 32 43 17 23 1014.6 1013.9 0.0
 
Date/Time
CDT
Temp
°C
App
Temp
°C
Dew
Point
Rel
Hum
%
Delta-T
°C
Wind Press
QNH
hPa
Press
MSL
hPa
Rain
since 9 am
mm
Dir
 
Spd
km/h
Gust
km/h
Spd
kts
Gust
kts
30/11:30pm 18.2 12.2 10.1 59 4.3 ESE 32 41 17 22 1014.8 - 0.0
30/11:00pm 19.1 13.2 9.0 52 5.3 SE 30 41 16 22 1014.8 - 0.0
30/10:30pm 20.3 13.7 8.6 47 6.2 SE 33 44 18 24 1014.5 - 0.0
30/10:10pm 21.2 14.6 8.5 44 6.7 SE 33 52 18 28 1014.2 - 0.0
30/10:00pm 21.6 14.4 7.8 41 7.2 SE 35 44 19 24 1014.1 - 0.0
30/09:30pm 22.7 15.9 5.2 32 8.8 SE 30 41 16 22 1013.7 - 0.0
30/09:00pm 24.0 16.8 2.8 25 10.3 SE 30 41 16 22 1013.4 1012.6 0.0
30/08:30pm 25.7 18.0 2.4 22 11.4 SE 32 43 17 23 1013.0 - 0.0
30/08:00pm 27.5 19.3 2.6 20 12.3 SE 35 46 19 25 1012.4 - 0.0
30/07:33pm 29.1 21.2 2.4 18 13.3 SE 33 52 18 28 1012.0 - 0.0
30/07:30pm 29.3 20.9 1.7 17 13.6 SE 35 52 19 28 1011.9 - 0.0
30/07:00pm 31.0 23.4 0.4 14 14.9 SE 30 43 16 23 1011.2 - 0.0
30/06:30pm 32.5 26.8 -0.5 12 16.0 SE 19 33 10 18 1011.2 - 0.0
30/06:00pm 33.3 26.6 -1.1 11 16.6 SE 24 37 13 20 1010.9 1010.2 0.0
30/05:30pm 33.1 27.1 -1.3 11 16.5 S 20 30 11 16 1010.9 - 0.0
30/05:00pm 33.4 27.5 -2.3 10 16.9 S 19 33 10 18 1011.4 - 0.0
30/04:30pm 33.2 28.0 -2.5 10 16.8 SSE 15 32 8 17 1011.8 - 0.0
30/04:00pm 32.8 26.3 -2.8 10 16.7 SSW 22 30 12 16 1012.0 - 0.0
30/03:30pm 32.2 27.7 -3.2 10 16.4 ESE 11 20 6 11 1012.1 - 0.0
30/03:00pm 32.4 26.6 -1.8 11 16.2 S 19 33 10 18 1012.5 1011.7 0.0
30/02:30pm 31.9 26.0 -2.2 11 16.0 S 19 28 10 15 1012.8 - 0.0
30/02:00pm 32.2 26.7 -2.0 11 16.1 SSE 17 30 9 16 1013.3 - 0.0
30/01:30pm 31.3 27.5 -0.4 13 15.3 S 9 17 5 9 1013.7 - 0.0
30/01:00pm 31.7 28.5 1.0 14 15.2 SE 7 19 4 10 1014.2 - 0.0
30/12:30pm 30.3 26.9 1.7 16 14.2 ENE 9 19 5 10 1014.6 - 0.0
30/12:00pm 29.0 26.2 5.1 22 12.5 E 9 15 5 8 1014.9 1014.2 0.0
30/11:30am 28.0 24.6 7.8 28 11.0 ESE 15 20 8 11 1015.2 - 0.0
30/11:00am 26.1 23.4 10.3 37 8.9 ESE 15 20 8 11 1015.2 - 0.0
30/10:30am 24.5 21.3 11.1 43 7.6 ESE 19 24 10 13 1015.3 - 0.0
30/10:00am 22.7 19.4 11.7 49 6.2 ESE 20 28 11 15 1015.5 - 0.0
30/09:30am 21.3 18.2 13.5 61 4.5 ESE 22 28 12 15 1015.6 - 0.0
30/09:00am 19.0 15.5 13.4 70 3.2 ESE 24 30 13 16 1015.6 1014.9 0.0
30/08:30am 17.7 15.1 13.8 78 2.2 ESE 20 26 11 14 1015.6 - 0.0
30/08:00am 16.0 13.6 13.7 86 1.3 ESE 19 22 10 12 1015.5 - 0.0
30/07:30am 14.8 12.0 13.2 90 0.9 ESE 20 24 11 13 1015.2 - 0.0
30/07:00am 14.2 11.5 12.8 91 0.8 ESE 19 22 10 12 1015.0 - 0.0
30/06:30am 14.2 11.5 12.8 91 0.8 ESE 19 22 10 12 1014.7 - 0.0
30/06:00am 14.3 11.9 12.7 90 0.9 SE 17 24 9 13 1014.6 1013.9 0.0
30/05:30am 14.6 11.9 13.0 90 0.9 ESE 19 24 10 13 1014.2 - 0.0
30/05:00am 14.6 12.2 12.6 88 1.1 ESE 17 20 9 11 1014.1 - 0.0
30/04:30am 14.8 12.0 12.5 86 1.3 SE 19 22 10 12 1014.0 - 0.0
30/04:00am 15.1 12.2 12.2 83 1.6 SE 19 22 10 12 1014.0 - 0.0
30/03:30am 15.5 12.3 11.9 79 2.0 SE 20 28 11 15 1014.2 - 0.0
30/03:00am 15.7 13.0 11.7 77 2.2 SE 17 24 9 13 1014.2 1013.5 0.0
30/02:30am 16.2 13.0 11.8 75 2.4 SE 20 26 11 14 1014.2 - 0.0
30/02:00am 16.8 13.5 11.5 71 2.9 SE 20 28 11 15 1014.3 - 0.0
30/01:30am 17.3 13.5 11.3 68 3.3 SE 22 30 12 16 1014.5 - 0.0
30/01:00am 18.0 13.4 10.9 63 3.9 ESE 26 32 14 17 1014.5 - 0.0
30/12:30am 18.5 13.9 9.8 57 4.6 ESE 24 32 13 17 1014.6 - 0.0
30/12:00am 19.2 14.5 7.9 48 5.8 SE 22 30 12 16 1014.7 1014.0 0.0
 
Date/Time
CDT
Temp
°C
App
Temp
°C
Dew
Point
Rel
Hum
%
Delta-T
°C
Wind Press
QNH
hPa
Press
MSL
hPa
Rain
since 9 am
mm
Dir
 
Spd
km/h
Gust
km/h
Spd
kts
Gust
kts
29/11:30pm 20.1 14.6 6.1 40 7.0 ESE 24 33 13 18 1014.7 - 0.0
29/11:00pm 21.2 15.1 4.7 34 8.1 ESE 26 32 14 17 1014.6 - 0.0
29/10:30pm 22.3 15.6 3.4 29 9.2 SE 28 37 15 20 1014.5 - 0.0
29/10:00pm 23.3 16.4 2.7 26 9.9 ESE 28 37 15 20 1014.3 - 0.0
29/09:30pm 24.5 17.6 2.6 24 10.6 SE 28 35 15 19 1014.0 - 0.0
29/09:00pm 25.6 18.4 2.9 23 11.2 SE 30 39 16 21 1013.6 1012.9 0.0
29/08:30pm 26.8 19.3 3.3 22 11.7 SE 32 44 17 24 1013.3 - 0.0
29/08:00pm 28.4 20.3 3.3 20 12.7 SE 35 46 19 25 1012.8 - 0.0
29/07:30pm 30.4 22.5 0.9 15 14.5 SE 32 46 17 25 1012.5 - 0.0
29/07:00pm 31.7 25.5 1.9 15 15.0 SE 24 30 13 16 1012.1 - 0.0
29/06:30pm 32.4 26.7 0.5 13 15.7 SSE 20 30 11 16 1012.1 - 0.0
29/06:00pm 32.6 27.9 -1.7 11 16.3 SSE 13 22 7 12 1012.4 1011.6 0.0
29/05:30pm 33.0 27.0 -1.4 11 16.5 SSE 20 33 11 18 1012.5 - 0.0
29/05:00pm 32.8 27.9 -0.3 12 16.1 S 15 24 8 13 1012.7 - 0.0
29/04:30pm 32.3 25.9 -1.9 11 16.2 SSE 22 32 12 17 1013.1 - 0.0
29/04:00pm 32.8 27.9 -0.3 12 16.1 SSE 15 32 8 17 1013.4 - 0.0
29/03:30pm 32.2 27.0 0.3 13 15.7 S 17 26 9 14 1013.7 - 0.0
29/03:00pm 30.9 26.3 -0.7 13 15.1 SE 13 26 7 14 1014.2 1013.5 0.0
29/02:30pm 30.5 25.9 -1.0 13 14.9 SSE 13 26 7 14 1014.6 - 0.0
29/02:00pm 30.5 25.4 -2.1 12 15.2 SSE 15 22 8 12 1015.0 - 0.0
29/01:30pm 30.4 25.8 -1.1 13 14.9 ESE 13 24 7 13 1015.4 - 0.0
29/01:00pm 28.6 24.3 -1.5 14 14.0 E 11 22 6 12 1015.8 - 0.0
29/12:30pm 28.6 24.1 2.0 18 13.1 SE 15 22 8 12 1016.0 - 0.0
29/12:00pm 27.8 23.8 2.8 20 12.4 ENE 13 19 7 10 1016.4 1015.7 0.0
29/11:30am 26.6 21.9 5.0 25 11.1 ESE 19 28 10 15 1016.4 - 0.0
29/11:00am 25.3 20.5 7.4 32 9.5 E 22 32 12 17 1016.6 - 0.0
29/10:30am 24.1 19.5 9.7 40 7.9 ESE 24 32 13 17 1016.7 - 0.0
29/10:00am 21.7 18.3 12.5 56 5.3 ESE 22 28 12 15 1016.7 - 0.0
29/09:30am 19.4 15.9 13.3 68 3.5 E 24 30 13 16 1016.6 - 0.0
29/09:00am 18.1 14.3 13.6 75 2.6 E 26 35 14 19 1016.5 1015.8 0.0
29/08:30am 16.6 13.2 13.7 83 1.6 E 24 32 13 17 1016.4 - 0.0
29/08:00am 15.3 12.5 13.3 88 1.1 E 20 28 11 15 1016.1 - 0.0

Other Formats:

Comma delimited format used in spreadsheet applications
http://www.bom.gov.au/fwo/IDS60801/IDS60801.95662.axf

JavaScript Object Notation format (JSON) in row-major order
http://www.bom.gov.au/fwo/IDS60801/IDS60801.95662.json